sensor_id;sensor_type;location;lat;lon;timestamp;P1;durP1;ratioP1;P2;durP2;ratioP2
6163;SDS011;3114;48.362;10.994;2023-01-01T00:01:24;71.95;;;42.30;;
6163;SDS011;3114;48.362;10.994;2023-01-01T00:03:52;63.35;;;38.33;;
6163;SDS011;3114;48.362;10.994;2023-01-01T00:06:21;53.25;;;34.42;;
6163;SDS011;3114;48.362;10.994;2023-01-01T00:08:48;48.97;;;29.45;;
6163;SDS011;3114;48.362;10.994;2023-01-01T00:11:36;43.00;;;28.70;;
6163;SDS011;3114;48.362;10.994;2023-01-01T00:14:03;44.40;;;28.60;;
6163;SDS011;3114;48.362;10.994;2023-01-01T00:16:30;47.40;;;30.48;;
6163;SDS011;3114;48.362;10.994;2023-01-01T00:18:57;51.00;;;32.20;;
6163;SDS011;3114;48.362;10.994;2023-01-01T00:21:25;59.47;;;35.88;;
6163;SDS011;3114;48.362;10.994;2023-01-01T00:23:52;63.28;;;38.90;;
6163;SDS011;3114;48.362;10.994;2023-01-01T00:26:19;62.00;;;36.35;;
6163;SDS011;3114;48.362;10.994;2023-01-01T00:28:46;54.80;;;34.22;;
6163;SDS011;3114;48.362;10.994;2023-01-01T00:31:13;42.72;;;27.77;;
6163;SDS011;3114;48.362;10.994;2023-01-01T00:33:42;40.15;;;25.63;;
6163;SDS011;3114;48.362;10.994;2023-01-01T00:36:09;43.25;;;27.20;;
6163;SDS011;3114;48.362;10.994;2023-01-01T00:38:39;49.75;;;29.13;;
6163;SDS011;3114;48.362;10.994;2023-01-01T00:41:09;55.90;;;34.08;;
6163;SDS011;3114;48.362;10.994;2023-01-01T00:43:36;60.75;;;37.47;;
6163;SDS011;3114;48.362;10.994;2023-01-01T00:46:03;66.05;;;39.22;;
6163;SDS011;3114;48.362;10.994;2023-01-01T00:48:31;67.38;;;41.13;;
6163;SDS011;3114;48.362;10.994;2023-01-01T00:50:58;68.78;;;41.25;;
6163;SDS011;3114;48.362;10.994;2023-01-01T00:53:25;73.07;;;41.05;;
6163;SDS011;3114;48.362;10.994;2023-01-01T00:55:53;70.70;;;42.90;;
6163;SDS011;3114;48.362;10.994;2023-01-01T00:58:20;63.10;;;39.45;;
6163;SDS011;3114;48.362;10.994;2023-01-01T01:00:48;62.95;;;35.60;;
6163;SDS011;3114;48.362;10.994;2023-01-01T01:03:16;61.65;;;35.33;;
6163;SDS011;3114;48.362;10.994;2023-01-01T01:05:52;59.97;;;34.33;;
6163;SDS011;3114;48.362;10.994;2023-01-01T01:08:20;64.03;;;36.58;;
6163;SDS011;3114;48.362;10.994;2023-01-01T01:10:47;55.90;;;35.75;;
6163;SDS011;3114;48.362;10.994;2023-01-01T01:13:15;64.50;;;37.85;;
6163;SDS011;3114;48.362;10.994;2023-01-01T01:15:42;60.83;;;34.70;;
6163;SDS011;3114;48.362;10.994;2023-01-01T01:18:08;58.13;;;34.28;;
6163;SDS011;3114;48.362;10.994;2023-01-01T01:20:35;60.47;;;34.80;;
6163;SDS011;3114;48.362;10.994;2023-01-01T01:23:02;53.22;;;33.50;;
6163;SDS011;3114;48.362;10.994;2023-01-01T01:25:29;58.90;;;34.55;;
6163;SDS011;3114;48.362;10.994;2023-01-01T01:27:56;55.47;;;34.20;;
6163;SDS011;3114;48.362;10.994;2023-01-01T01:30:24;56.50;;;35.10;;
6163;SDS011;3114;48.362;10.994;2023-01-01T01:32:51;61.60;;;36.67;;
6163;SDS011;3114;48.362;10.994;2023-01-01T01:35:18;56.30;;;36.65;;
6163;SDS011;3114;48.362;10.994;2023-01-01T01:37:45;58.72;;;35.00;;
6163;SDS011;3114;48.362;10.994;2023-01-01T01:40:12;56.42;;;34.22;;
6163;SDS011;3114;48.362;10.994;2023-01-01T01:42:43;51.88;;;33.65;;
6163;SDS011;3114;48.362;10.994;2023-01-01T01:45:12;49.60;;;32.97;;
6163;SDS011;3114;48.362;10.994;2023-01-01T01:47:41;52.50;;;33.15;;
6163;SDS011;3114;48.362;10.994;2023-01-01T01:50:14;48.60;;;30.83;;
6163;SDS011;3114;48.362;10.994;2023-01-01T01:52:48;45.35;;;27.23;;
6163;SDS011;3114;48.362;10.994;2023-01-01T01:55:23;45.00;;;26.13;;
6163;SDS011;3114;48.362;10.994;2023-01-01T01:57:54;41.10;;;25.80;;
6163;SDS011;3114;48.362;10.994;2023-01-01T02:00:21;41.42;;;25.40;;
6163;SDS011;3114;48.362;10.994;2023-01-01T02:02:50;37.75;;;23.40;;
6163;SDS011;3114;48.362;10.994;2023-01-01T02:05:20;38.55;;;23.98;;
6163;SDS011;3114;48.362;10.994;2023-01-01T02:07:48;37.05;;;22.33;;
6163;SDS011;3114;48.362;10.994;2023-01-01T02:10:17;34.35;;;21.35;;
6163;SDS011;3114;48.362;10.994;2023-01-01T02:12:45;33.20;;;19.63;;
6163;SDS011;3114;48.362;10.994;2023-01-01T02:15:12;28.55;;;19.75;;
6163;SDS011;3114;48.362;10.994;2023-01-01T02:17:39;32.75;;;20.02;;
6163;SDS011;3114;48.362;10.994;2023-01-01T02:20:18;30.70;;;19.85;;
6163;SDS011;3114;48.362;10.994;2023-01-01T02:23:00;27.63;;;17.95;;
6163;SDS011;3114;48.362;10.994;2023-01-01T02:26:02;26.50;;;16.77;;
6163;SDS011;3114;48.362;10.994;2023-01-01T02:28:55;25.77;;;17.23;;
6163;SDS011;3114;48.362;10.994;2023-01-01T02:31:28;26.48;;;16.55;;
6163;SDS011;3114;48.362;10.994;2023-01-01T02:33:59;25.23;;;16.38;;
6163;SDS011;3114;48.362;10.994;2023-01-01T02:36:29;23.02;;;16.58;;
6163;SDS011;3114;48.362;10.994;2023-01-01T02:38:59;27.13;;;17.52;;
6163;SDS011;3114;48.362;10.994;2023-01-01T02:41:29;27.10;;;16.80;;
6163;SDS011;3114;48.362;10.994;2023-01-01T02:44:02;23.38;;;15.02;;
6163;SDS011;3114;48.362;10.994;2023-01-01T02:46:30;24.92;;;15.40;;
6163;SDS011;3114;48.362;10.994;2023-01-01T02:48:58;26.50;;;16.52;;
6163;SDS011;3114;48.362;10.994;2023-01-01T02:51:27;24.48;;;15.02;;
6163;SDS011;3114;48.362;10.994;2023-01-01T02:54:04;22.92;;;14.98;;
6163;SDS011;3114;48.362;10.994;2023-01-01T02:56:36;25.50;;;14.85;;
6163;SDS011;3114;48.362;10.994;2023-01-01T02:59:14;23.58;;;14.63;;
6163;SDS011;3114;48.362;10.994;2023-01-01T03:02:07;21.63;;;14.13;;
6163;SDS011;3114;48.362;10.994;2023-01-01T03:04:42;20.00;;;13.70;;
6163;SDS011;3114;48.362;10.994;2023-01-01T03:07:19;22.67;;;14.30;;
6163;SDS011;3114;48.362;10.994;2023-01-01T03:09:52;20.92;;;13.73;;
6163;SDS011;3114;48.362;10.994;2023-01-01T03:12:26;21.40;;;13.15;;
6163;SDS011;3114;48.362;10.994;2023-01-01T03:15:08;21.50;;;13.25;;
6163;SDS011;3114;48.362;10.994;2023-01-01T03:17:40;21.65;;;12.90;;
6163;SDS011;3114;48.362;10.994;2023-01-01T03:20:16;21.40;;;13.13;;
6163;SDS011;3114;48.362;10.994;2023-01-01T03:22:45;17.17;;;12.18;;
6163;SDS011;3114;48.362;10.994;2023-01-01T03:25:15;20.58;;;12.82;;
6163;SDS011;3114;48.362;10.994;2023-01-01T03:27:47;18.52;;;11.32;;
6163;SDS011;3114;48.362;10.994;2023-01-01T03:30:17;19.15;;;12.13;;
6163;SDS011;3114;48.362;10.994;2023-01-01T03:32:47;18.23;;;11.55;;
6163;SDS011;3114;48.362;10.994;2023-01-01T03:35:30;15.32;;;10.70;;
6163;SDS011;3114;48.362;10.994;2023-01-01T03:38:03;15.73;;;10.75;;
6163;SDS011;3114;48.362;10.994;2023-01-01T03:40:33;16.02;;;10.25;;
6163;SDS011;3114;48.362;10.994;2023-01-01T03:43:03;17.55;;;10.35;;
6163;SDS011;3114;48.362;10.994;2023-01-01T03:45:36;16.83;;;10.15;;
6163;SDS011;3114;48.362;10.994;2023-01-01T03:48:06;16.73;;;10.85;;
6163;SDS011;3114;48.362;10.994;2023-01-01T03:50:36;14.93;;;9.95;;
6163;SDS011;3114;48.362;10.994;2023-01-01T03:53:09;16.77;;;10.80;;
6163;SDS011;3114;48.362;10.994;2023-01-01T03:55:44;15.55;;;10.80;;
6163;SDS011;3114;48.362;10.994;2023-01-01T03:58:17;15.55;;;10.45;;
6163;SDS011;3114;48.362;10.994;2023-01-01T04:00:52;15.52;;;9.93;;
6163;SDS011;3114;48.362;10.994;2023-01-01T04:03:23;14.32;;;9.18;;
6163;SDS011;3114;48.362;10.994;2023-01-01T04:05:52;14.85;;;9.52;;
6163;SDS011;3114;48.362;10.994;2023-01-01T04:08:19;15.05;;;9.32;;
6163;SDS011;3114;48.362;10.994;2023-01-01T04:10:47;14.27;;;9.32;;
6163;SDS011;3114;48.362;10.994;2023-01-01T04:13:18;12.32;;;8.18;;
6163;SDS011;3114;48.362;10.994;2023-01-01T04:15:45;11.40;;;8.05;;
6163;SDS011;3114;48.362;10.994;2023-01-01T04:18:13;10.13;;;7.55;;
6163;SDS011;3114;48.362;10.994;2023-01-01T04:20:40;9.75;;;6.50;;
6163;SDS011;3114;48.362;10.994;2023-01-01T04:23:08;10.60;;;7.00;;
6163;SDS011;3114;48.362;10.994;2023-01-01T04:25:35;8.23;;;6.20;;
6163;SDS011;3114;48.362;10.994;2023-01-01T04:28:02;10.85;;;6.10;;
6163;SDS011;3114;48.362;10.994;2023-01-01T04:30:29;7.75;;;5.95;;
6163;SDS011;3114;48.362;10.994;2023-01-01T04:32:56;7.78;;;5.38;;
6163;SDS011;3114;48.362;10.994;2023-01-01T04:35:24;6.80;;;5.35;;
6163;SDS011;3114;48.362;10.994;2023-01-01T04:37:51;7.40;;;5.00;;
6163;SDS011;3114;48.362;10.994;2023-01-01T04:40:18;7.28;;;4.90;;
6163;SDS011;3114;48.362;10.994;2023-01-01T04:42:44;6.32;;;4.65;;
6163;SDS011;3114;48.362;10.994;2023-01-01T04:45:11;6.95;;;4.88;;
6163;SDS011;3114;48.362;10.994;2023-01-01T04:47:39;7.78;;;4.45;;
6163;SDS011;3114;48.362;10.994;2023-01-01T04:50:06;6.07;;;4.35;;
6163;SDS011;3114;48.362;10.994;2023-01-01T04:52:35;8.75;;;4.50;;
6163;SDS011;3114;48.362;10.994;2023-01-01T04:55:02;6.18;;;4.13;;
6163;SDS011;3114;48.362;10.994;2023-01-01T04:57:30;8.13;;;4.63;;
6163;SDS011;3114;48.362;10.994;2023-01-01T04:59:57;8.23;;;4.30;;
6163;SDS011;3114;48.362;10.994;2023-01-01T05:02:24;5.22;;;3.80;;
6163;SDS011;3114;48.362;10.994;2023-01-01T05:04:51;5.22;;;3.75;;
6163;SDS011;3114;48.362;10.994;2023-01-01T05:07:18;6.57;;;4.07;;
6163;SDS011;3114;48.362;10.994;2023-01-01T05:09:46;5.30;;;3.67;;
6163;SDS011;3114;48.362;10.994;2023-01-01T05:12:13;5.90;;;3.90;;
6163;SDS011;3114;48.362;10.994;2023-01-01T05:14:40;4.40;;;3.58;;
6163;SDS011;3114;48.362;10.994;2023-01-01T05:17:07;4.13;;;3.58;;
6163;SDS011;3114;48.362;10.994;2023-01-01T05:19:34;4.72;;;3.78;;
6163;SDS011;3114;48.362;10.994;2023-01-01T05:22:00;4.78;;;3.80;;
6163;SDS011;3114;48.362;10.994;2023-01-01T05:24:27;5.68;;;3.70;;
6163;SDS011;3114;48.362;10.994;2023-01-01T05:26:56;6.88;;;4.03;;
6163;SDS011;3114;48.362;10.994;2023-01-01T05:29:23;5.40;;;3.72;;
6163;SDS011;3114;48.362;10.994;2023-01-01T05:31:50;5.38;;;3.53;;
6163;SDS011;3114;48.362;10.994;2023-01-01T05:34:17;4.80;;;3.40;;
6163;SDS011;3114;48.362;10.994;2023-01-01T05:36:44;6.20;;;3.70;;
6163;SDS011;3114;48.362;10.994;2023-01-01T05:39:11;5.95;;;3.70;;
6163;SDS011;3114;48.362;10.994;2023-01-01T05:41:38;4.75;;;3.20;;
6163;SDS011;3114;48.362;10.994;2023-01-01T05:44:06;4.45;;;3.40;;
6163;SDS011;3114;48.362;10.994;2023-01-01T05:46:34;4.72;;;3.50;;
6163;SDS011;3114;48.362;10.994;2023-01-01T05:49:02;4.57;;;3.20;;
6163;SDS011;3114;48.362;10.994;2023-01-01T05:51:29;5.68;;;3.47;;
6163;SDS011;3114;48.362;10.994;2023-01-01T05:53:57;3.80;;;3.20;;
6163;SDS011;3114;48.362;10.994;2023-01-01T05:56:24;5.25;;;3.30;;
6163;SDS011;3114;48.362;10.994;2023-01-01T05:58:52;2.85;;;2.55;;
6163;SDS011;3114;48.362;10.994;2023-01-01T06:01:21;4.38;;;3.20;;
6163;SDS011;3114;48.362;10.994;2023-01-01T06:03:49;6.22;;;3.20;;
6163;SDS011;3114;48.362;10.994;2023-01-01T06:06:18;3.67;;;2.80;;
6163;SDS011;3114;48.362;10.994;2023-01-01T06:08:49;3.60;;;3.00;;
6163;SDS011;3114;48.362;10.994;2023-01-01T06:11:17;4.72;;;2.80;;
6163;SDS011;3114;48.362;10.994;2023-01-01T06:13:44;4.75;;;3.45;;
6163;SDS011;3114;48.362;10.994;2023-01-01T06:16:11;3.95;;;2.92;;
6163;SDS011;3114;48.362;10.994;2023-01-01T06:18:40;3.80;;;2.80;;
6163;SDS011;3114;48.362;10.994;2023-01-01T06:21:08;4.00;;;2.80;;
6163;SDS011;3114;48.362;10.994;2023-01-01T06:23:36;3.70;;;2.88;;
6163;SDS011;3114;48.362;10.994;2023-01-01T06:26:03;4.65;;;2.70;;
6163;SDS011;3114;48.362;10.994;2023-01-01T06:28:31;3.45;;;2.75;;
6163;SDS011;3114;48.362;10.994;2023-01-01T06:30:58;3.80;;;2.85;;
6163;SDS011;3114;48.362;10.994;2023-01-01T06:33:26;4.15;;;2.90;;
6163;SDS011;3114;48.362;10.994;2023-01-01T06:35:55;4.03;;;2.67;;
6163;SDS011;3114;48.362;10.994;2023-01-01T06:38:22;4.53;;;2.50;;
6163;SDS011;3114;48.362;10.994;2023-01-01T06:40:55;7.28;;;2.80;;
6163;SDS011;3114;48.362;10.994;2023-01-01T06:43:22;4.43;;;2.70;;
6163;SDS011;3114;48.362;10.994;2023-01-01T06:45:57;3.67;;;2.85;;
6163;SDS011;3114;48.362;10.994;2023-01-01T06:48:26;4.05;;;2.78;;
6163;SDS011;3114;48.362;10.994;2023-01-01T06:50:55;4.45;;;3.17;;
6163;SDS011;3114;48.362;10.994;2023-01-01T06:53:23;4.57;;;2.92;;
6163;SDS011;3114;48.362;10.994;2023-01-01T06:55:50;4.70;;;2.92;;
6163;SDS011;3114;48.362;10.994;2023-01-01T06:58:17;5.22;;;2.70;;
6163;SDS011;3114;48.362;10.994;2023-01-01T07:00:44;3.40;;;2.63;;
6163;SDS011;3114;48.362;10.994;2023-01-01T07:03:11;4.88;;;2.70;;
6163;SDS011;3114;48.362;10.994;2023-01-01T07:05:38;2.90;;;2.47;;
6163;SDS011;3114;48.362;10.994;2023-01-01T07:08:06;4.38;;;3.17;;
6163;SDS011;3114;48.362;10.994;2023-01-01T07:10:33;3.35;;;2.65;;
6163;SDS011;3114;48.362;10.994;2023-01-01T07:13:00;4.50;;;2.50;;
6163;SDS011;3114;48.362;10.994;2023-01-01T07:15:26;3.90;;;3.08;;
6163;SDS011;3114;48.362;10.994;2023-01-01T07:17:53;3.58;;;2.70;;
6163;SDS011;3114;48.362;10.994;2023-01-01T07:20:20;4.22;;;2.90;;
6163;SDS011;3114;48.362;10.994;2023-01-01T07:22:47;4.63;;;2.95;;
6163;SDS011;3114;48.362;10.994;2023-01-01T07:25:15;5.32;;;3.50;;
6163;SDS011;3114;48.362;10.994;2023-01-01T07:27:42;4.88;;;2.70;;
6163;SDS011;3114;48.362;10.994;2023-01-01T07:30:09;5.05;;;3.17;;
6163;SDS011;3114;48.362;10.994;2023-01-01T07:32:36;3.63;;;2.85;;
6163;SDS011;3114;48.362;10.994;2023-01-01T07:35:03;4.78;;;2.83;;
6163;SDS011;3114;48.362;10.994;2023-01-01T07:37:30;4.90;;;2.97;;
6163;SDS011;3114;48.362;10.994;2023-01-01T07:39:57;4.30;;;2.95;;
6163;SDS011;3114;48.362;10.994;2023-01-01T07:42:25;5.35;;;3.05;;
6163;SDS011;3114;48.362;10.994;2023-01-01T07:44:52;4.43;;;2.97;;
6163;SDS011;3114;48.362;10.994;2023-01-01T07:47:20;4.90;;;3.30;;
6163;SDS011;3114;48.362;10.994;2023-01-01T07:49:49;4.32;;;3.38;;
6163;SDS011;3114;48.362;10.994;2023-01-01T07:52:16;6.43;;;3.88;;
6163;SDS011;3114;48.362;10.994;2023-01-01T07:54:43;4.95;;;3.45;;
6163;SDS011;3114;48.362;10.994;2023-01-01T07:57:10;5.88;;;3.40;;
6163;SDS011;3114;48.362;10.994;2023-01-01T07:59:38;4.45;;;3.28;;
6163;SDS011;3114;48.362;10.994;2023-01-01T08:02:05;4.95;;;3.80;;
6163;SDS011;3114;48.362;10.994;2023-01-01T08:04:32;6.30;;;3.80;;
6163;SDS011;3114;48.362;10.994;2023-01-01T08:06:58;6.43;;;3.60;;
6163;SDS011;3114;48.362;10.994;2023-01-01T08:09:25;5.15;;;3.72;;
6163;SDS011;3114;48.362;10.994;2023-01-01T08:11:52;4.68;;;3.25;;
6163;SDS011;3114;48.362;10.994;2023-01-01T08:14:19;6.20;;;4.03;;
6163;SDS011;3114;48.362;10.994;2023-01-01T08:16:47;5.30;;;3.75;;
6163;SDS011;3114;48.362;10.994;2023-01-01T08:19:14;5.85;;;3.28;;
6163;SDS011;3114;48.362;10.994;2023-01-01T08:21:41;6.10;;;3.70;;
6163;SDS011;3114;48.362;10.994;2023-01-01T08:24:08;4.60;;;3.08;;
6163;SDS011;3114;48.362;10.994;2023-01-01T08:26:35;4.05;;;3.00;;
6163;SDS011;3114;48.362;10.994;2023-01-01T08:29:04;4.57;;;3.10;;
6163;SDS011;3114;48.362;10.994;2023-01-01T08:31:32;4.72;;;2.95;;
6163;SDS011;3114;48.362;10.994;2023-01-01T08:34:00;7.47;;;3.20;;
6163;SDS011;3114;48.362;10.994;2023-01-01T08:36:27;5.05;;;3.10;;
6163;SDS011;3114;48.362;10.994;2023-01-01T08:38:54;4.60;;;3.10;;
6163;SDS011;3114;48.362;10.994;2023-01-01T08:41:21;5.28;;;3.22;;
6163;SDS011;3114;48.362;10.994;2023-01-01T08:43:47;6.35;;;2.90;;
6163;SDS011;3114;48.362;10.994;2023-01-01T08:46:14;3.53;;;2.53;;
6163;SDS011;3114;48.362;10.994;2023-01-01T08:48:41;5.72;;;2.92;;
6163;SDS011;3114;48.362;10.994;2023-01-01T08:51:10;4.15;;;2.72;;
6163;SDS011;3114;48.362;10.994;2023-01-01T08:53:37;4.97;;;2.90;;
6163;SDS011;3114;48.362;10.994;2023-01-01T08:56:04;3.53;;;2.72;;
6163;SDS011;3114;48.362;10.994;2023-01-01T08:58:33;3.80;;;3.08;;
6163;SDS011;3114;48.362;10.994;2023-01-01T09:01:01;4.70;;;2.90;;
6163;SDS011;3114;48.362;10.994;2023-01-01T09:03:28;6.07;;;3.25;;
6163;SDS011;3114;48.362;10.994;2023-01-01T09:05:55;5.47;;;3.03;;
6163;SDS011;3114;48.362;10.994;2023-01-01T09:08:24;4.63;;;2.83;;
6163;SDS011;3114;48.362;10.994;2023-01-01T09:10:51;2.78;;;2.30;;
6163;SDS011;3114;48.362;10.994;2023-01-01T09:13:20;4.40;;;2.28;;
6163;SDS011;3114;48.362;10.994;2023-01-01T09:15:47;4.90;;;2.25;;
6163;SDS011;3114;48.362;10.994;2023-01-01T09:18:14;3.30;;;2.15;;
6163;SDS011;3114;48.362;10.994;2023-01-01T09:20:41;3.67;;;2.28;;
6163;SDS011;3114;48.362;10.994;2023-01-01T09:23:09;3.25;;;2.25;;
6163;SDS011;3114;48.362;10.994;2023-01-01T09:25:37;4.78;;;2.70;;
6163;SDS011;3114;48.362;10.994;2023-01-01T09:28:05;2.95;;;2.42;;
6163;SDS011;3114;48.362;10.994;2023-01-01T09:30:33;2.60;;;2.38;;
6163;SDS011;3114;48.362;10.994;2023-01-01T09:33:01;3.13;;;2.55;;
6163;SDS011;3114;48.362;10.994;2023-01-01T09:35:28;4.32;;;2.85;;
6163;SDS011;3114;48.362;10.994;2023-01-01T09:37:55;3.85;;;2.20;;
6163;SDS011;3114;48.362;10.994;2023-01-01T09:40:25;4.38;;;2.30;;
6163;SDS011;3114;48.362;10.994;2023-01-01T09:42:59;3.67;;;2.53;;
6163;SDS011;3114;48.362;10.994;2023-01-01T09:45:33;2.45;;;2.20;;
6163;SDS011;3114;48.362;10.994;2023-01-01T09:48:07;3.90;;;2.30;;
6163;SDS011;3114;48.362;10.994;2023-01-01T09:50:39;3.65;;;2.20;;
6163;SDS011;3114;48.362;10.994;2023-01-01T09:53:09;2.78;;;2.30;;
6163;SDS011;3114;48.362;10.994;2023-01-01T09:55:41;4.28;;;2.45;;
6163;SDS011;3114;48.362;10.994;2023-01-01T09:58:13;3.08;;;1.95;;
6163;SDS011;3114;48.362;10.994;2023-01-01T10:00:41;4.32;;;2.05;;
6163;SDS011;3114;48.362;10.994;2023-01-01T10:03:17;2.78;;;1.60;;
6163;SDS011;3114;48.362;10.994;2023-01-01T10:05:53;2.65;;;2.10;;
6163;SDS011;3114;48.362;10.994;2023-01-01T10:08:33;3.25;;;1.90;;
6163;SDS011;3114;48.362;10.994;2023-01-01T10:11:08;2.55;;;1.77;;
6163;SDS011;3114;48.362;10.994;2023-01-01T10:13:43;3.15;;;1.67;;
6163;SDS011;3114;48.362;10.994;2023-01-01T10:16:12;3.03;;;1.75;;
6163;SDS011;3114;48.362;10.994;2023-01-01T10:18:46;2.70;;;1.70;;
6163;SDS011;3114;48.362;10.994;2023-01-01T10:21:16;2.75;;;1.80;;
6163;SDS011;3114;48.362;10.994;2023-01-01T10:23:49;2.50;;;1.40;;
6163;SDS011;3114;48.362;10.994;2023-01-01T10:26:20;1.40;;;1.30;;
6163;SDS011;3114;48.362;10.994;2023-01-01T10:28:53;1.75;;;1.25;;
6163;SDS011;3114;48.362;10.994;2023-01-01T10:31:27;1.63;;;1.20;;
6163;SDS011;3114;48.362;10.994;2023-01-01T10:33:56;1.60;;;1.38;;
6163;SDS011;3114;48.362;10.994;2023-01-01T10:36:23;2.03;;;1.52;;
6163;SDS011;3114;48.362;10.994;2023-01-01T10:38:51;2.17;;;1.10;;
6163;SDS011;3114;48.362;10.994;2023-01-01T10:41:18;1.45;;;1.30;;
6163;SDS011;3114;48.362;10.994;2023-01-01T10:43:45;1.70;;;1.38;;
6163;SDS011;3114;48.362;10.994;2023-01-01T10:46:17;2.25;;;1.35;;
6163;SDS011;3114;48.362;10.994;2023-01-01T10:49:06;1.75;;;1.30;;
6163;SDS011;3114;48.362;10.994;2023-01-01T10:51:36;3.60;;;1.50;;
6163;SDS011;3114;48.362;10.994;2023-01-01T10:54:14;1.40;;;1.30;;
6163;SDS011;3114;48.362;10.994;2023-01-01T10:56:53;2.97;;;1.38;;
6163;SDS011;3114;48.362;10.994;2023-01-01T10:59:33;1.83;;;1.60;;
6163;SDS011;3114;48.362;10.994;2023-01-01T11:02:13;2.63;;;1.52;;
6163;SDS011;3114;48.362;10.994;2023-01-01T11:04:42;2.17;;;1.80;;
6163;SDS011;3114;48.362;10.994;2023-01-01T11:07:13;2.83;;;1.63;;
6163;SDS011;3114;48.362;10.994;2023-01-01T11:09:46;2.53;;;2.05;;
6163;SDS011;3114;48.362;10.994;2023-01-01T11:12:16;4.38;;;2.00;;
6163;SDS011;3114;48.362;10.994;2023-01-01T11:14:47;1.98;;;1.52;;
6163;SDS011;3114;48.362;10.994;2023-01-01T11:17:22;3.10;;;1.80;;
6163;SDS011;3114;48.362;10.994;2023-01-01T11:19:50;1.58;;;1.38;;
6163;SDS011;3114;48.362;10.994;2023-01-01T11:22:38;1.67;;;1.30;;
6163;SDS011;3114;48.362;10.994;2023-01-01T11:25:17;3.63;;;1.60;;
6163;SDS011;3114;48.362;10.994;2023-01-01T11:27:46;2.38;;;1.33;;
6163;SDS011;3114;48.362;10.994;2023-01-01T11:30:18;2.78;;;1.40;;
6163;SDS011;3114;48.362;10.994;2023-01-01T11:32:48;1.63;;;1.40;;
6163;SDS011;3114;48.362;10.994;2023-01-01T11:35:18;3.88;;;1.30;;
6163;SDS011;3114;48.362;10.994;2023-01-01T11:37:47;2.50;;;1.55;;
6163;SDS011;3114;48.362;10.994;2023-01-01T11:40:16;4.15;;;1.60;;
6163;SDS011;3114;48.362;10.994;2023-01-01T11:42:47;4.70;;;1.70;;
6163;SDS011;3114;48.362;10.994;2023-01-01T11:45:17;4.30;;;1.83;;
6163;SDS011;3114;48.362;10.994;2023-01-01T11:47:50;2.72;;;1.40;;
6163;SDS011;3114;48.362;10.994;2023-01-01T11:50:22;3.30;;;1.50;;
6163;SDS011;3114;48.362;10.994;2023-01-01T11:52:52;2.25;;;1.58;;
6163;SDS011;3114;48.362;10.994;2023-01-01T11:55:24;2.25;;;1.63;;
6163;SDS011;3114;48.362;10.994;2023-01-01T11:58:05;2.97;;;1.60;;
6163;SDS011;3114;48.362;10.994;2023-01-01T12:00:40;2.20;;;1.30;;
6163;SDS011;3114;48.362;10.994;2023-01-01T12:03:14;2.78;;;1.40;;
6163;SDS011;3114;48.362;10.994;2023-01-01T12:05:47;1.20;;;1.10;;
6163;SDS011;3114;48.362;10.994;2023-01-01T12:08:22;2.22;;;1.20;;
6163;SDS011;3114;48.362;10.994;2023-01-01T12:10:57;2.55;;;1.42;;
6163;SDS011;3114;48.362;10.994;2023-01-01T12:13:32;1.75;;;1.35;;
6163;SDS011;3114;48.362;10.994;2023-01-01T12:16:09;2.50;;;1.30;;
6163;SDS011;3114;48.362;10.994;2023-01-01T12:18:43;1.95;;;1.25;;
6163;SDS011;3114;48.362;10.994;2023-01-01T12:21:14;2.50;;;1.40;;
6163;SDS011;3114;48.362;10.994;2023-01-01T12:23:45;1.30;;;0.95;;
6163;SDS011;3114;48.362;10.994;2023-01-01T12:26:14;1.35;;;1.20;;
6163;SDS011;3114;48.362;10.994;2023-01-01T12:28:52;2.00;;;1.20;;
6163;SDS011;3114;48.362;10.994;2023-01-01T12:31:42;1.73;;;1.20;;
6163;SDS011;3114;48.362;10.994;2023-01-01T12:34:20;1.52;;;1.10;;
6163;SDS011;3114;48.362;10.994;2023-01-01T12:36:55;2.15;;;1.27;;
6163;SDS011;3114;48.362;10.994;2023-01-01T12:39:45;1.13;;;1.08;;
6163;SDS011;3114;48.362;10.994;2023-01-01T12:42:31;1.83;;;1.15;;
6163;SDS011;3114;48.362;10.994;2023-01-01T12:45:16;2.50;;;1.00;;
6163;SDS011;3114;48.362;10.994;2023-01-01T12:48:03;3.10;;;1.30;;
6163;SDS011;3114;48.362;10.994;2023-01-01T12:50:50;4.50;;;1.40;;
6163;SDS011;3114;48.362;10.994;2023-01-01T12:53:25;2.95;;;1.48;;
6163;SDS011;3114;48.362;10.994;2023-01-01T12:56:02;2.10;;;1.48;;
6163;SDS011;3114;48.362;10.994;2023-01-01T12:58:37;2.72;;;1.30;;
6163;SDS011;3114;48.362;10.994;2023-01-01T13:01:07;2.20;;;1.40;;
6163;SDS011;3114;48.362;10.994;2023-01-01T13:03:40;2.38;;;1.50;;
6163;SDS011;3114;48.362;10.994;2023-01-01T13:06:14;2.65;;;1.10;;
6163;SDS011;3114;48.362;10.994;2023-01-01T13:08:43;2.15;;;1.27;;
6163;SDS011;3114;48.362;10.994;2023-01-01T13:11:15;3.45;;;1.50;;
6163;SDS011;3114;48.362;10.994;2023-01-01T13:13:44;5.03;;;1.40;;
6163;SDS011;3114;48.362;10.994;2023-01-01T13:16:12;2.15;;;1.25;;
6163;SDS011;3114;48.362;10.994;2023-01-01T13:18:57;3.70;;;1.92;;
6163;SDS011;3114;48.362;10.994;2023-01-01T13:21:25;4.80;;;1.80;;
6163;SDS011;3114;48.362;10.994;2023-01-01T13:23:54;3.03;;;1.75;;
6163;SDS011;3114;48.362;10.994;2023-01-01T13:26:36;2.50;;;1.38;;
6163;SDS011;3114;48.362;10.994;2023-01-01T13:32:03;4.82;;;1.65;;
6163;SDS011;3114;48.362;10.994;2023-01-01T13:34:39;2.30;;;1.42;;
6163;SDS011;3114;48.362;10.994;2023-01-01T13:37:30;2.80;;;1.45;;
6163;SDS011;3114;48.362;10.994;2023-01-01T13:43:26;3.40;;;1.45;;
6163;SDS011;3114;48.362;10.994;2023-01-01T13:45:53;2.25;;;1.33;;
6163;SDS011;3114;48.362;10.994;2023-01-01T13:48:28;1.85;;;1.20;;
6163;SDS011;3114;48.362;10.994;2023-01-01T13:51:41;2.97;;;1.23;;
6163;SDS011;3114;48.362;10.994;2023-01-01T13:54:39;1.80;;;1.08;;
6163;SDS011;3114;48.362;10.994;2023-01-01T13:57:35;4.15;;;2.03;;
6163;SDS011;3114;48.362;10.994;2023-01-01T14:00:23;3.58;;;1.90;;
6163;SDS011;3114;48.362;10.994;2023-01-01T14:02:56;4.53;;;1.92;;
6163;SDS011;3114;48.362;10.994;2023-01-01T14:05:27;4.55;;;2.20;;
6163;SDS011;3114;48.362;10.994;2023-01-01T14:07:56;4.50;;;1.95;;
6163;SDS011;3114;48.362;10.994;2023-01-01T14:10:25;4.85;;;1.80;;
6163;SDS011;3114;48.362;10.994;2023-01-01T14:12:54;2.60;;;1.83;;
6163;SDS011;3114;48.362;10.994;2023-01-01T14:15:28;3.22;;;1.85;;
6163;SDS011;3114;48.362;10.994;2023-01-01T14:17:58;2.13;;;1.60;;
6163;SDS011;3114;48.362;10.994;2023-01-01T14:20:29;4.60;;;1.67;;
6163;SDS011;3114;48.362;10.994;2023-01-01T14:23:01;3.03;;;1.80;;
6163;SDS011;3114;48.362;10.994;2023-01-01T14:25:32;2.63;;;1.80;;
6163;SDS011;3114;48.362;10.994;2023-01-01T14:28:00;4.43;;;1.88;;
6163;SDS011;3114;48.362;10.994;2023-01-01T14:30:28;3.53;;;1.83;;
6163;SDS011;3114;48.362;10.994;2023-01-01T14:32:57;4.10;;;1.88;;
6163;SDS011;3114;48.362;10.994;2023-01-01T14:35:25;4.15;;;1.80;;
6163;SDS011;3114;48.362;10.994;2023-01-01T14:37:52;6.05;;;1.70;;
6163;SDS011;3114;48.362;10.994;2023-01-01T14:40:19;3.95;;;1.70;;
6163;SDS011;3114;48.362;10.994;2023-01-01T14:42:59;3.40;;;1.63;;
6163;SDS011;3114;48.362;10.994;2023-01-01T14:45:30;2.10;;;1.70;;
6163;SDS011;3114;48.362;10.994;2023-01-01T14:47:59;3.05;;;2.00;;
6163;SDS011;3114;48.362;10.994;2023-01-01T14:50:27;2.13;;;1.70;;
6163;SDS011;3114;48.362;10.994;2023-01-01T14:52:56;2.40;;;1.88;;
6163;SDS011;3114;48.362;10.994;2023-01-01T14:55:30;3.30;;;1.58;;
6163;SDS011;3114;48.362;10.994;2023-01-01T14:58:01;2.92;;;1.77;;
6163;SDS011;3114;48.362;10.994;2023-01-01T15:00:29;2.65;;;1.70;;
6163;SDS011;3114;48.362;10.994;2023-01-01T15:03:04;1.65;;;1.33;;
6163;SDS011;3114;48.362;10.994;2023-01-01T15:05:33;2.17;;;1.35;;
6163;SDS011;3114;48.362;10.994;2023-01-01T15:08:01;1.95;;;1.60;;
6163;SDS011;3114;48.362;10.994;2023-01-01T15:10:29;76.10;;;50.58;;
6163;SDS011;3114;48.362;10.994;2023-01-01T15:12:59;156.05;;;109.07;;
6163;SDS011;3114;48.362;10.994;2023-01-01T15:15:34;66.82;;;46.40;;
6163;SDS011;3114;48.362;10.994;2023-01-01T15:18:04;10.70;;;7.80;;
6163;SDS011;3114;48.362;10.994;2023-01-01T15:20:31;4.53;;;2.95;;